Terminal Aerodrome Forecast
Issued by NWS

Home | Current Version | Previous Version | Text Only | Print | Product List | Glossary On
Versions: 1 2 3 4 5 6 7 8 9 10 11 12 13
311
FTAK31 PAJN 081139
TAFAJN
TAF
PAJN 081139Z 0812/0912 08010KT P6SM FEW010 FEW030 BKN060
     FM081800 09005KT P6SM VCSH FEW030 OVC060
     FM082100 12006KT 5SM -RA BR SCT015 BKN040 OVC060
     FM090500 11012KT 4SM -RA BR SCT007 BKN015 OVC030=

USA.gov is the U.S. government's official web portal to all federal, state and local government web resources and services.